Time;durP1;ratioP1;P1;durP2;ratioP2;P2;SDS_P1;SDS_P2;PMS_P1;PMS_P2;Temp;Humidity;BMP_temperature;BMP_pressure;BME280_temperature;BME280_humidity;BME280_pressure;Samples;Min_cycle;Max_cycle;Signal;HPM_P1;HPM_P2
2022/10/27 00:00:38;;;;;;;10.35;5.25;;;13.70;99.90;;;;;;5112858;28;20047;-69
2022/10/27 00:03:04;;;;;;;10.30;4.80;;;13.70;99.90;;;;;;5112778;28;20082;-68
2022/10/27 00:05:30;;;;;;;11.70;5.30;;;13.70;99.90;;;;;;5095870;28;20036;-68
2022/10/27 00:07:56;;;;;;;12.10;5.03;;;13.70;99.90;;;;;;5113077;28;20039;-68
2022/10/27 00:10:21;;;;;;;11.00;5.00;;;13.70;99.90;;;;;;5112691;28;20399;-68
2022/10/27 00:12:47;;;;;;;12.60;5.47;;;13.70;99.90;;;;;;5112300;28;20126;-68
2022/10/27 00:15:13;;;;;;;11.70;5.05;;;13.70;99.90;;;;;;5112956;28;20239;-68
2022/10/27 00:17:39;;;;;;;13.70;5.78;;;13.70;99.90;;;;;;5112662;28;20035;-68
2022/10/27 00:20:06;;;;;;;12.52;5.35;;;13.60;99.90;;;;;;5112550;28;20054;-69
2022/10/27 00:22:31;;;;;;;13.52;4.97;;;13.70;99.90;;;;;;5112447;28;20054;-68
2022/10/27 00:24:57;;;;;;;14.82;5.68;;;13.70;99.90;;;;;;5112519;28;20044;-69
2022/10/27 00:27:23;;;;;;;10.88;5.15;;;13.70;99.90;;;;;;5112494;28;20044;-68
2022/10/27 00:29:48;;;;;;;9.38;4.90;;;13.60;99.90;;;;;;5112382;28;20042;-68
2022/10/27 00:32:14;;;;;;;14.63;5.13;;;13.70;99.90;;;;;;5113697;28;20036;-68
2022/10/27 00:34:39;;;;;;;13.32;4.65;;;13.70;99.90;;;;;;5112384;28;20131;-69
2022/10/27 00:37:05;;;;;;;11.80;4.93;;;13.70;99.90;;;;;;5112418;28;20050;-68
2022/10/27 00:39:30;;;;;;;11.10;5.25;;;13.70;99.90;;;;;;5112319;28;20039;-68
2022/10/27 00:41:57;;;;;;;11.98;5.75;;;13.70;99.90;;;;;;5112293;28;20048;-69
2022/10/27 00:44:41;;;;;;;14.13;4.88;;;13.60;99.90;;;;;;5112556;28;20123;-68
2022/10/27 00:47:22;;;;;;;10.75;5.15;;;13.70;99.90;;;;;;5112308;28;20046;-69
2022/10/27 00:50:01;;;;;;;12.38;4.65;;;13.70;99.90;;;;;;5095544;28;20122;-68
2022/10/27 00:52:31;;;;;;;11.13;5.47;;;13.70;99.90;;;;;;5112265;28;20047;-68
2022/10/27 00:55:02;;;;;;;11.57;5.43;;;13.70;99.90;;;;;;5112472;28;20131;-69
2022/10/27 00:57:30;;;;;;;16.50;6.28;;;13.60;99.90;;;;;;5112243;28;20045;-69
2022/10/27 00:59:57;;;;;;;10.40;5.38;;;13.70;99.90;;;;;;5112367;28;20043;-68
2022/10/27 01:02:22;;;;;;;20.33;5.47;;;13.60;99.90;;;;;;5112118;28;20047;-68
2022/10/27 01:04:58;;;;;;;16.02;6.03;;;13.70;99.90;;;;;;5112408;28;20040;-69
2022/10/27 01:07:24;;;;;;;11.10;5.65;;;13.70;99.90;;;;;;5112439;28;20039;-68
2022/10/27 01:09:51;;;;;;;12.77;5.53;;;13.70;99.90;;;;;;5112346;28;20373;-68
2022/10/27 01:12:16;;;;;;;12.00;5.50;;;13.70;99.90;;;;;;5112085;28;20081;-68
2022/10/27 01:14:42;;;;;;;13.77;5.93;;;13.70;99.90;;;;;;5112069;28;20071;-68
2022/10/27 01:17:23;;;;;;;16.35;6.15;;;13.70;99.90;;;;;;5112063;28;20047;-69
2022/10/27 01:20:07;;;;;;;11.98;5.63;;;13.70;99.90;;;;;;5112237;28;20044;-69
2022/10/27 01:23:12;;;;;;;12.80;5.32;;;13.60;99.90;;;;;;5111991;28;20118;-68
2022/10/27 01:25:40;;;;;;;10.30;5.72;;;13.70;99.90;;;;;;5110839;28;20514;-68
2022/10/27 01:28:49;;;;;;;11.88;6.03;;;13.70;99.90;;;;;;5116150;28;20081;-68
2022/10/27 01:31:24;;;;;;;13.95;6.10;;;13.70;99.90;;;;;;5116174;28;20058;-68
2022/10/27 01:34:04;;;;;;;13.82;6.13;;;13.80;99.90;;;;;;5116042;28;20127;-69
2022/10/27 01:36:47;;;;;;;14.15;6.25;;;13.80;99.90;;;;;;5115771;28;20111;-68
2022/10/27 01:39:23;;;;;;;14.63;6.47;;;13.80;99.90;;;;;;5115974;28;20048;-69
2022/10/27 01:41:56;;;;;;;12.23;6.65;;;13.80;99.90;;;;;;5098462;28;20124;-68
2022/10/27 01:44:28;;;;;;;9.77;6.18;;;13.80;99.90;;;;;;5116897;28;20050;-68
2022/10/27 01:46:56;;;;;;;15.80;6.63;;;13.90;99.90;;;;;;5115607;28;20047;-68
2022/10/27 01:49:22;;;;;;;12.10;6.50;;;13.90;99.90;;;;;;5116688;28;20040;-68
2022/10/27 01:51:48;;;;;;;16.35;6.72;;;13.90;99.90;;;;;;5115482;28;20071;-68
2022/10/27 01:54:16;;;;;;;12.50;6.60;;;13.90;99.90;;;;;;5115688;28;20054;-68
2022/10/27 01:56:47;;;;;;;14.60;6.63;;;13.90;99.90;;;;;;5115601;28;20039;-68
2022/10/27 01:59:32;;;;;;;12.32;6.30;;;14.00;99.90;;;;;;5115266;28;20122;-69
2022/10/27 02:02:12;;;;;;;15.00;7.25;;;14.00;99.90;;;;;;5098209;28;20047;-68
2022/10/27 02:04:57;;;;;;;13.95;8.30;;;14.00;99.90;;;;;;5115146;28;20476;-69
2022/10/27 02:07:43;;;;;;;13.45;6.95;;;14.00;99.90;;;;;;5115215;28;20075;-68
2022/10/27 02:10:16;;;;;;;15.32;7.20;;;14.00;99.90;;;;;;5115366;28;20035;-68
2022/10/27 02:12:43;;;;;;;13.30;7.22;;;14.00;99.90;;;;;;5115378;28;20039;-68
2022/10/27 02:15:31;;;;;;;11.23;6.10;;;14.00;99.90;;;;;;5114934;28;20067;-68
2022/10/27 02:18:04;;;;;;;11.77;6.40;;;14.00;99.90;;;;;;5115017;28;20044;-68
2022/10/27 02:20:34;;;;;;;15.43;6.35;;;14.00;99.90;;;;;;5116421;28;20118;-68
2022/10/27 02:23:06;;;;;;;11.57;6.50;;;14.00;99.90;;;;;;5116312;28;20061;-69
2022/10/27 02:25:38;;;;;;;13.65;6.97;;;14.00;99.90;;;;;;5115083;28;20101;-68
2022/10/27 02:28:07;;;;;;;14.35;6.88;;;14.00;99.90;;;;;;5115097;28;20040;-68
2022/10/27 02:30:34;;;;;;;11.98;6.78;;;14.00;99.90;;;;;;5114668;28;20115;-68
2022/10/27 02:33:00;;;;;;;16.48;6.60;;;14.00;99.90;;;;;;5114656;28;20047;-68
2022/10/27 02:35:26;;;;;;;14.98;7.40;;;14.00;99.90;;;;;;5114238;28;20046;-68
2022/10/27 02:37:52;;;;;;;13.00;7.38;;;14.00;99.90;;;;;;5114578;28;20036;-68
2022/10/27 02:40:17;;;;;;;15.45;7.25;;;14.00;99.90;;;;;;5114510;28;20050;-69
2022/10/27 02:42:43;;;;;;;14.50;6.70;;;14.00;99.90;;;;;;5114500;28;20071;-69
2022/10/27 02:45:09;;;;;;;11.90;7.45;;;14.00;99.90;;;;;;5114394;28;20511;-69
2022/10/27 02:47:34;;;;;;;12.10;6.57;;;14.00;99.90;;;;;;5114387;28;20035;-68
2022/10/27 02:50:00;;;;;;;12.95;7.28;;;13.90;99.90;;;;;;5114532;28;20040;-68
2022/10/27 02:52:25;;;;;;;16.40;7.57;;;13.90;99.90;;;;;;5115561;28;20510;-68
2022/10/27 02:54:51;;;;;;;14.45;7.68;;;13.90;99.90;;;;;;5114237;28;20496;-68
2022/10/27 02:57:18;;;;;;;14.20;8.20;;;13.90;99.90;;;;;;5114186;28;20050;-68
2022/10/27 02:59:43;;;;;;;13.85;7.20;;;13.90;99.90;;;;;;5114092;28;20043;-68
2022/10/27 03:02:09;;;;;;;13.80;7.50;;;13.90;99.90;;;;;;5114070;28;20042;-68
2022/10/27 03:04:35;;;;;;;20.60;8.35;;;13.90;99.90;;;;;;5114293;28;20039;-69
2022/10/27 03:07:01;;;;;;;16.05;8.45;;;13.90;99.90;;;;;;5113999;28;20040;-69
2022/10/27 03:09:26;;;;;;;15.93;8.02;;;13.90;99.90;;;;;;5115420;28;20036;-68
2022/10/27 03:11:52;;;;;;;14.38;8.90;;;13.80;99.90;;;;;;5113927;28;20043;-68
2022/10/27 03:14:18;;;;;;;17.42;8.57;;;13.80;99.90;;;;;;5114091;28;20055;-68
2022/10/27 03:16:43;;;;;;;14.65;8.13;;;13.80;99.90;;;;;;5114068;28;20043;-68
2022/10/27 03:19:09;;;;;;;14.32;7.38;;;13.80;99.90;;;;;;5113986;28;20046;-69
2022/10/27 03:21:34;;;;;;;12.52;7.80;;;13.80;99.90;;;;;;5113660;28;20385;-68
2022/10/27 03:24:00;;;;;;;16.08;8.82;;;13.80;99.90;;;;;;5113655;28;20035;-69
2022/10/27 03:26:25;;;;;;;17.45;8.65;;;13.80;99.90;;;;;;5113648;28;20050;-68
2022/10/27 03:28:51;;;;;;;14.95;8.10;;;13.80;99.90;;;;;;5113550;28;20193;-69
2022/10/27 03:31:16;;;;;;;13.65;7.80;;;13.70;99.90;;;;;;5113575;28;20047;-68
2022/10/27 03:33:42;;;;;;;17.08;8.13;;;13.70;99.90;;;;;;5113423;28;20163;-68
2022/10/27 03:36:10;;;;;;;14.73;7.80;;;13.80;99.90;;;;;;5113375;28;20076;-68
2022/10/27 03:38:36;;;;;;;12.30;6.97;;;13.70;99.90;;;;;;5113524;28;20043;-69
2022/10/27 03:41:01;;;;;;;13.80;7.35;;;13.70;99.90;;;;;;5113394;28;20514;-68
2022/10/27 03:43:27;;;;;;;14.30;7.82;;;13.70;99.90;;;;;;5113497;28;20547;-68
2022/10/27 03:45:52;;;;;;;16.55;8.13;;;13.70;99.90;;;;;;5112654;28;20407;-68
2022/10/27 03:48:18;;;;;;;18.05;7.53;;;13.70;99.90;;;;;;5112937;28;20043;-68
2022/10/27 03:50:46;;;;;;;11.60;7.63;;;13.70;99.90;;;;;;5113047;28;20035;-68
2022/10/27 03:53:13;;;;;;;15.45;7.95;;;13.70;99.90;;;;;;5113049;28;20400;-68
2022/10/27 03:55:38;;;;;;;15.52;7.78;;;13.70;99.90;;;;;;5112913;28;20403;-68
2022/10/27 03:58:04;;;;;;;14.70;8.00;;;13.60;99.90;;;;;;5112966;28;20043;-68
2022/10/27 04:00:32;;;;;;;14.95;7.95;;;13.70;99.90;;;;;;5113118;28;20040;-69
2022/10/27 04:02:58;;;;;;;13.50;7.25;;;13.60;99.90;;;;;;5112778;28;20061;-69
2022/10/27 04:05:24;;;;;;;13.20;8.02;;;13.60;99.90;;;;;;5096172;28;20056;-69
2022/10/27 04:07:50;;;;;;;13.82;7.88;;;13.60;99.90;;;;;;5112791;28;20488;-68
2022/10/27 04:10:15;;;;;;;17.00;7.80;;;13.60;99.90;;;;;;5112924;28;20065;-68
2022/10/27 04:12:51;;;;;;;16.38;8.20;;;13.50;99.90;;;;;;5112687;28;20123;-68
2022/10/27 04:15:18;;;;;;;13.50;7.60;;;13.60;99.90;;;;;;5113602;28;20411;-69
2022/10/27 04:17:44;;;;;;;15.80;8.32;;;13.50;99.90;;;;;;5114189;28;20046;-68
2022/10/27 04:20:10;;;;;;;14.90;9.00;;;13.50;99.90;;;;;;5112859;28;20036;-68
2022/10/27 04:22:35;;;;;;;13.70;8.52;;;13.50;99.90;;;;;;5112613;28;20112;-68
2022/10/27 04:25:01;;;;;;;17.45;8.98;;;13.50;99.90;;;;;;5112529;28;20492;-69
2022/10/27 04:27:27;;;;;;;15.25;8.20;;;13.50;99.90;;;;;;5112532;28;20041;-68
2022/10/27 04:29:52;;;;;;;14.60;8.45;;;13.50;99.90;;;;;;5112443;28;20039;-69
2022/10/27 04:32:18;;;;;;;17.48;8.75;;;13.50;99.90;;;;;;5112736;28;20042;-68
2022/10/27 04:34:43;;;;;;;17.77;8.38;;;13.50;99.90;;;;;;5112708;28;20085;-68
2022/10/27 04:37:09;;;;;;;14.98;9.00;;;13.50;99.90;;;;;;5112400;28;20176;-68
2022/10/27 04:39:34;;;;;;;14.55;8.52;;;13.50;99.90;;;;;;5112335;28;20130;-69
2022/10/27 04:42:00;;;;;;;12.63;7.95;;;13.50;99.90;;;;;;5112213;28;20130;-69
2022/10/27 04:44:25;;;;;;;15.18;7.70;;;13.50;99.90;;;;;;5112579;28;20048;-69
2022/10/27 04:46:51;;;;;;;14.25;8.65;;;13.40;99.90;;;;;;5112300;28;20445;-69
2022/10/27 04:49:16;;;;;;;14.52;8.82;;;13.50;99.90;;;;;;5112522;28;20075;-69
2022/10/27 04:51:42;;;;;;;14.07;8.77;;;13.40;99.90;;;;;;5112302;28;20551;-69
2022/10/27 04:54:08;;;;;;;17.88;9.77;;;13.40;99.90;;;;;;5112258;28;20411;-69
2022/10/27 04:56:33;;;;;;;16.10;9.18;;;13.40;99.90;;;;;;5112238;28;20075;-69
2022/10/27 04:58:59;;;;;;;16.20;8.43;;;13.40;99.90;;;;;;5115592;28;20047;-69
2022/10/27 05:01:24;;;;;;;16.33;9.55;;;13.40;99.90;;;;;;5116392;28;20122;-69
2022/10/27 05:03:50;;;;;;;19.92;9.88;;;13.40;99.90;;;;;;5116621;28;20123;-68
2022/10/27 05:06:15;;;;;;;14.65;9.75;;;13.40;99.90;;;;;;5116348;28;20159;-68
2022/10/27 05:08:41;;;;;;;16.98;10.27;;;13.30;99.90;;;;;;5116541;28;20077;-68
2022/10/27 05:11:07;;;;;;;16.45;10.00;;;13.30;99.90;;;;;;5116271;28;20623;-68
2022/10/27 05:13:32;;;;;;;19.85;10.65;;;13.30;99.90;;;;;;5116184;28;20040;-69
2022/10/27 05:15:59;;;;;;;17.10;11.15;;;13.30;99.90;;;;;;5116192;28;20046;-69
2022/10/27 05:18:25;;;;;;;20.25;10.40;;;13.30;99.90;;;;;;5117229;28;20057;-69
2022/10/27 05:20:50;;;;;;;18.60;10.63;;;13.30;99.90;;;;;;5116035;28;20562;-68
2022/10/27 05:23:16;;;;;;;18.63;10.27;;;13.40;99.90;;;;;;5115938;28;20066;-68
2022/10/27 05:25:41;;;;;;;15.60;10.65;;;13.40;99.90;;;;;;5115977;28;20046;-69
2022/10/27 05:28:10;;;;;;;17.98;10.68;;;13.40;99.90;;;;;;5115934;28;20096;-68
2022/10/27 05:30:36;;;;;;;16.38;10.98;;;13.40;99.90;;;;;;5115824;28;20036;-69
2022/10/27 05:33:02;;;;;;;21.25;10.95;;;13.40;99.90;;;;;;5116095;28;20381;-69
2022/10/27 05:35:27;;;;;;;17.33;10.98;;;13.40;99.90;;;;;;5115808;28;20050;-69
2022/10/27 05:37:53;;;;;;;18.55;10.70;;;13.40;99.90;;;;;;5116044;28;20053;-68
2022/10/27 05:40:18;;;;;;;21.08;11.15;;;13.40;99.90;;;;;;5115472;28;20491;-69
2022/10/27 05:42:52;;;;;;;16.75;10.85;;;13.40;99.90;;;;;;5115580;28;20036;-69
2022/10/27 05:45:18;;;;;;;15.18;10.70;;;13.40;99.90;;;;;;5115597;28;20500;-68
2022/10/27 05:47:44;;;;;;;16.52;10.52;;;13.40;99.90;;;;;;5115577;28;20075;-68
2022/10/27 05:50:10;;;;;;;16.98;10.25;;;13.40;99.90;;;;;;5115427;28;20081;-69
2022/10/27 05:52:35;;;;;;;14.13;10.10;;;13.40;99.90;;;;;;5115512;28;20046;-69
2022/10/27 05:55:01;;;;;;;14.95;10.02;;;13.40;99.90;;;;;;5115408;28;20046;-69
2022/10/27 05:57:27;;;;;;;16.75;10.25;;;13.40;99.90;;;;;;5115300;28;20039;-69
2022/10/27 05:59:52;;;;;;;15.05;10.25;;;13.40;99.90;;;;;;5115509;28;20097;-68
2022/10/27 06:02:18;;;;;;;16.40;10.10;;;13.40;99.90;;;;;;5115212;28;20459;-69
2022/10/27 06:04:43;;;;;;;16.85;9.95;;;13.50;99.90;;;;;;5115252;28;20036;-68
2022/10/27 06:07:09;;;;;;;15.13;9.93;;;13.50;99.90;;;;;;5115192;28;20043;-68
2022/10/27 06:09:35;;;;;;;18.38;10.00;;;13.50;99.90;;;;;;5114327;28;20046;-69
2022/10/27 06:12:01;;;;;;;15.00;9.77;;;13.50;99.90;;;;;;5115365;28;20119;-68
2022/10/27 06:14:26;;;;;;;14.45;9.38;;;13.50;99.90;;;;;;5115095;28;20496;-68
2022/10/27 06:16:52;;;;;;;12.40;9.60;;;13.50;99.90;;;;;;5115273;28;20035;-68
2022/10/27 06:19:17;;;;;;;13.93;10.00;;;13.60;99.90;;;;;;5114855;28;20474;-68
2022/10/27 06:21:43;;;;;;;20.25;9.48;;;13.60;99.90;;;;;;5114801;28;20047;-68
2022/10/27 06:24:08;;;;;;;19.02;10.07;;;13.60;99.90;;;;;;5114853;28;20131;-68
2022/10/27 06:26:34;;;;;;;13.95;9.20;;;13.60;99.90;;;;;;5114811;28;20119;-68
2022/10/27 06:29:00;;;;;;;14.55;9.07;;;13.60;99.90;;;;;;5114755;28;20147;-69
2022/10/27 06:31:25;;;;;;;21.15;9.88;;;13.60;99.90;;;;;;5114710;28;20047;-69
2022/10/27 06:33:51;;;;;;;13.55;9.13;;;13.60;99.90;;;;;;5097949;28;20040;-69
2022/10/27 06:36:16;;;;;;;16.75;9.52;;;13.70;99.90;;;;;;5114659;28;20243;-69
2022/10/27 06:38:42;;;;;;;15.43;9.23;;;13.60;99.90;;;;;;5114559;28;20126;-69
2022/10/27 06:41:08;;;;;;;15.10;8.75;;;13.70;99.90;;;;;;5114315;28;20058;-69
2022/10/27 06:43:33;;;;;;;14.13;9.18;;;13.70;99.90;;;;;;5114518;28;20445;-69
2022/10/27 06:45:59;;;;;;;14.07;9.20;;;13.70;99.90;;;;;;5114473;28;20039;-69
2022/10/27 06:48:24;;;;;;;17.00;8.65;;;13.70;99.90;;;;;;5114418;28;20114;-68
2022/10/27 06:50:50;;;;;;;13.18;8.68;;;13.70;99.90;;;;;;5114291;28;20089;-72
2022/10/27 06:53:15;;;;;;;10.40;8.32;;;13.70;99.90;;;;;;5114560;28;20043;-68
2022/10/27 06:55:41;;;;;;;16.30;8.25;;;13.80;99.90;;;;;;5114290;28;20047;-68
2022/10/27 06:58:06;;;;;;;16.95;8.27;;;13.80;99.90;;;;;;5097205;28;20040;-68
2022/10/27 07:00:32;;;;;;;14.50;7.72;;;13.80;99.90;;;;;;5114146;28;20035;-69
2022/10/27 07:02:58;;;;;;;13.18;8.43;;;13.90;99.90;;;;;;5114093;28;20043;-69
2022/10/27 07:05:24;;;;;;;12.88;7.82;;;13.90;99.90;;;;;;5114131;28;20522;-68
2022/10/27 07:07:51;;;;;;;16.33;8.70;;;13.90;99.90;;;;;;5114041;28;20075;-68
2022/10/27 07:10:17;;;;;;;14.30;8.15;;;13.90;99.90;;;;;;5113908;28;20043;-68
2022/10/27 07:12:56;;;;;;;11.60;7.47;;;14.00;99.90;;;;;;5113910;28;20036;-68
2022/10/27 07:15:23;;;;;;;12.10;7.32;;;14.00;99.90;;;;;;5113842;28;20135;-68
2022/10/27 07:17:54;;;;;;;14.68;7.70;;;14.00;99.90;;;;;;5113818;28;20491;-68
2022/10/27 07:20:20;;;;;;;14.90;7.90;;;14.00;99.90;;;;;;5113509;28;20080;-68
2022/10/27 07:22:45;;;;;;;16.00;7.63;;;14.00;99.90;;;;;;5112900;28;20071;-68
2022/10/27 07:25:11;;;;;;;12.82;7.18;;;14.10;99.90;;;;;;5113648;28;20485;-68
2022/10/27 07:27:36;;;;;;;15.93;7.20;;;14.10;99.90;;;;;;5113642;28;20040;-68
2022/10/27 07:30:03;;;;;;;13.40;7.32;;;14.20;99.90;;;;;;5113497;28;20036;-68
2022/10/27 07:32:28;;;;;;;11.10;6.70;;;14.20;99.90;;;;;;5113519;28;20039;-68
2022/10/27 07:34:54;;;;;;;14.23;7.20;;;14.20;99.90;;;;;;5113476;28;20055;-68
2022/10/27 07:37:19;;;;;;;11.80;6.93;;;14.20;99.90;;;;;;5113426;28;20039;-68
2022/10/27 07:39:45;;;;;;;15.10;6.95;;;14.20;99.90;;;;;;5113324;28;20051;-68
2022/10/27 07:42:10;;;;;;;14.43;7.10;;;14.30;99.90;;;;;;5113318;28;20066;-68
2022/10/27 07:44:36;;;;;;;15.70;6.60;;;14.30;99.90;;;;;;5113572;28;20414;-68
2022/10/27 07:47:01;;;;;;;13.07;6.85;;;14.40;99.90;;;;;;5113296;28;20488;-68
2022/10/27 07:49:27;;;;;;;13.07;6.28;;;14.40;99.90;;;;;;5113410;28;20093;-68
2022/10/27 07:51:52;;;;;;;16.35;7.05;;;14.40;99.90;;;;;;5113235;28;20101;-68
2022/10/27 07:54:18;;;;;;;13.50;6.95;;;14.50;99.90;;;;;;5113133;28;20126;-68
2022/10/27 07:56:47;;;;;;;13.82;6.43;;;14.50;99.90;;;;;;5114336;28;20392;-68
2022/10/27 07:59:12;;;;;;;11.35;6.20;;;14.60;99.90;;;;;;5112926;28;20036;-68
2022/10/27 08:01:38;;;;;;;11.35;6.10;;;14.60;99.90;;;;;;5112928;28;20119;-68
2022/10/27 08:04:04;;;;;;;10.55;6.43;;;14.60;99.90;;;;;;5112922;28;20040;-68
2022/10/27 08:06:29;;;;;;;14.88;6.38;;;14.70;99.90;;;;;;5112929;28;20114;-68
2022/10/27 08:08:55;;;;;;;10.95;6.15;;;14.70;99.90;;;;;;5112774;28;20043;-68
2022/10/27 08:11:22;;;;;;;11.90;6.25;;;14.80;99.90;;;;;;5112793;28;20452;-68
2022/10/27 08:13:48;;;;;;;13.40;6.30;;;14.80;99.90;;;;;;5112833;28;20062;-68
2022/10/27 08:16:14;;;;;;;10.60;6.53;;;14.80;99.90;;;;;;5112704;28;20118;-68
2022/10/27 08:18:39;;;;;;;14.75;6.45;;;14.90;99.90;;;;;;5112641;28;20522;-68
2022/10/27 08:21:05;;;;;;;11.70;5.95;;;14.90;99.90;;;;;;5095661;28;20127;-68
2022/10/27 08:23:30;;;;;;;16.05;6.10;;;14.90;99.90;;;;;;5112892;28;20036;-68
2022/10/27 08:25:56;;;;;;;12.38;6.28;;;14.90;99.90;;;;;;5112834;28;20042;-67
2022/10/27 08:28:23;;;;;;;13.35;5.63;;;15.00;99.90;;;;;;5112577;28;20537;-67
2022/10/27 08:30:51;;;;;;;12.95;6.55;;;15.00;99.90;;;;;;5112432;28;20456;-68
2022/10/27 08:33:17;;;;;;;13.23;6.72;;;15.10;99.90;;;;;;5112180;28;20050;-68
2022/10/27 08:35:42;;;;;;;13.52;6.53;;;15.10;99.90;;;;;;5112852;28;20122;-68
2022/10/27 08:38:13;;;;;;;12.77;6.20;;;15.10;99.90;;;;;;5112594;28;20043;-68
2022/10/27 08:41:01;;;;;;;11.05;5.65;;;15.20;99.90;;;;;;5112112;28;20067;-68
2022/10/27 08:43:36;;;;;;;11.30;5.53;;;15.20;99.90;;;;;;5112986;28;20054;-68
2022/10/27 08:46:11;;;;;;;10.07;5.82;;;15.30;99.90;;;;;;5112525;28;20051;-68
2022/10/27 08:48:38;;;;;;;11.07;4.97;;;15.40;99.90;;;;;;5113254;28;20384;-68
2022/10/27 08:51:09;;;;;;;12.40;5.10;;;15.50;99.90;;;;;;5112301;28;20563;-68
2022/10/27 08:53:37;;;;;;;10.52;4.93;;;15.60;99.90;;;;;;5114159;28;20086;-68
2022/10/27 08:56:08;;;;;;;8.57;5.07;;;15.70;99.90;;;;;;5112339;28;20031;-68
2022/10/27 08:58:46;;;;;;;12.07;5.28;;;15.80;99.90;;;;;;5112165;28;20046;-69
2022/10/27 09:01:38;;;;;;;11.80;5.07;;;15.90;99.90;;;;;;5112141;28;20044;-68
2022/10/27 09:04:43;;;;;;;10.90;4.72;;;16.00;99.90;;;;;;5112255;28;20075;-69
2022/10/27 09:07:14;;;;;;;10.18;5.03;;;16.00;99.90;;;;;;5112119;28;20074;-68
2022/10/27 09:10:15;;;;;;;10.32;4.80;;;16.10;99.90;;;;;;5112917;28;20039;-69
2022/10/27 09:13:05;;;;;;;9.90;4.60;;;16.20;99.90;;;;;;5111967;28;20039;-69
2022/10/27 09:15:53;;;;;;;7.68;4.25;;;16.40;99.90;;;;;;5112066;28;20500;-69
2022/10/27 09:18:41;;;;;;;10.32;4.38;;;16.50;99.90;;;;;;5112061;28;20078;-72
2022/10/27 09:21:22;;;;;;;8.18;4.75;;;16.60;99.90;;;;;;5111955;28;20043;-72
2022/10/27 09:23:53;;;;;;;9.77;4.90;;;16.70;99.90;;;;;;5095357;28;20039;-72
2022/10/27 09:26:25;;;;;;;10.32;4.25;;;16.80;99.90;;;;;;5112982;28;20078;-72
2022/10/27 09:28:52;;;;;;;12.15;4.22;;;16.80;99.90;;;;;;5112060;28;20047;-72
2022/10/27 09:31:32;;;;;;;7.55;4.10;;;16.90;99.90;;;;;;5111977;28;20527;-72
2022/10/27 09:34:08;;;;;;;12.30;4.38;;;17.00;99.90;;;;;;5112048;28;20043;-72
2022/10/27 09:36:34;;;;;;;10.05;4.50;;;17.10;99.90;;;;;;5111920;28;20039;-71
2022/10/27 09:38:59;;;;;;;9.40;3.95;;;17.10;99.90;;;;;;5111793;28;20047;-68
2022/10/27 09:41:25;;;;;;;9.63;4.13;;;17.20;99.90;;;;;;5113022;28;20051;-68
2022/10/27 09:43:55;;;;;;;8.85;3.50;;;17.30;99.90;;;;;;5111842;28;20066;-68
2022/10/27 09:46:24;;;;;;;11.07;4.15;;;17.30;99.90;;;;;;5115412;28;20043;-68
2022/10/27 09:48:59;;;;;;;10.25;3.40;;;17.30;99.90;;;;;;5115883;28;20031;-69
2022/10/27 09:51:42;;;;;;;8.45;3.65;;;17.40;99.90;;;;;;5098530;28;20070;-67
2022/10/27 09:54:34;;;;;;;7.45;3.65;;;17.40;99.90;;;;;;5115521;28;20127;-68
2022/10/27 09:57:18;;;;;;;8.93;3.55;;;17.40;99.90;;;;;;5115697;28;20118;-68
2022/10/27 09:59:58;;;;;;;7.57;3.03;;;17.50;99.90;;;;;;5115329;28;20048;-67
2022/10/27 10:02:31;;;;;;;7.60;3.50;;;17.50;99.90;;;;;;5117130;28;20043;-67
2022/10/27 10:04:58;;;;;;;7.78;3.33;;;17.50;99.90;;;;;;5115276;28;20032;-68
2022/10/27 10:07:36;;;;;;;7.05;3.47;;;17.60;99.90;;;;;;5116491;28;20526;-71
2022/10/27 10:10:13;;;;;;;8.50;2.92;;;17.60;99.90;;;;;;5115591;28;20035;-71
2022/10/27 10:12:39;;;;;;;7.40;2.95;;;17.70;99.90;;;;;;5115189;28;20052;-71
2022/10/27 10:15:11;;;;;;;7.15;2.72;;;17.80;99.90;;;;;;5115296;28;20041;-71
2022/10/27 10:18:00;;;;;;;6.88;2.60;;;17.90;99.90;;;;;;5115053;28;20074;-68
2022/10/27 10:20:41;;;;;;;7.53;2.72;;;17.90;99.90;;;;;;5116057;28;20039;-68
2022/10/27 10:23:21;;;;;;;8.95;2.70;;;18.10;99.90;;;;;;5114801;28;20514;-68
2022/10/27 10:25:48;;;;;;;4.40;2.03;;;18.10;99.90;;;;;;5114925;28;20035;-68
2022/10/27 10:28:35;;;;;;;5.30;2.40;;;18.20;99.90;;;;;;5097799;28;20137;-68
2022/10/27 10:31:04;;;;;;;7.22;2.28;;;18.30;99.90;;;;;;5114957;28;20057;-68
2022/10/27 10:33:39;;;;;;;5.25;1.70;;;18.40;99.90;;;;;;5114721;28;20047;-68
2022/10/27 10:36:36;;;;;;;7.05;2.00;;;18.40;99.90;;;;;;5114624;28;20407;-68
2022/10/27 10:39:19;;;;;;;7.15;2.00;;;18.40;99.90;;;;;;5114559;28;20488;-68
2022/10/27 10:42:04;;;;;;;4.53;1.48;;;18.40;99.90;;;;;;5114829;28;20106;-68
2022/10/27 10:44:30;;;;;;;4.30;1.30;;;18.40;99.90;;;;;;5114574;28;20051;-68
2022/10/27 10:46:56;;;;;;;5.10;1.30;;;18.40;99.90;;;;;;5114505;28;20032;-68
2022/10/27 10:49:26;;;;;;;7.60;1.50;;;18.50;99.90;;;;;;5114349;28;20040;-68
2022/10/27 10:51:55;;;;;;;5.95;2.15;;;18.50;99.90;;;;;;5115606;28;20046;-68
2022/10/27 10:54:32;;;;;;;5.45;1.45;;;18.70;99.90;;;;;;5114285;28;20411;-68
2022/10/27 10:56:58;;;;;;;5.32;1.50;;;19.00;99.90;;;;;;5114408;28;20044;-68
2022/10/27 10:59:32;;;;;;;7.75;1.80;;;19.30;99.90;;;;;;5114427;28;20050;-68
2022/10/27 11:02:15;;;;;;;5.70;1.33;;;20.00;99.90;;;;;;5114349;28;20048;-68
2022/10/27 11:04:43;;;;;;;4.32;1.20;;;20.80;99.90;;;;;;5114165;28;20158;-68
2022/10/27 11:07:14;;;;;;;4.72;1.23;;;21.60;99.90;;;;;;5114383;28;20450;-68
2022/10/27 11:09:51;;;;;;;4.63;1.40;;;22.10;99.90;;;;;;5114024;28;20500;-68
2022/10/27 11:12:28;;;;;;;5.28;1.10;;;22.60;99.90;;;;;;5114011;28;20127;-68
2022/10/27 11:14:57;;;;;;;5.15;0.93;;;23.30;99.90;;;;;;5114217;28;20047;-68
2022/10/27 11:17:24;;;;;;;3.65;1.00;;;23.70;99.90;;;;;;5114140;28;20144;-68
2022/10/27 11:19:51;;;;;;;8.40;1.60;;;23.80;98.90;;;;;;5113789;28;20542;-68
2022/10/27 11:22:19;;;;;;;4.78;0.95;;;23.70;98.10;;;;;;5113895;28;20142;-68
2022/10/27 11:24:52;;;;;;;4.32;0.85;;;23.20;97.90;;;;;;5113730;28;20051;-68
2022/10/27 11:27:31;;;;;;;3.72;1.10;;;22.70;98.50;;;;;;5113800;28;20451;-68
2022/10/27 11:30:20;;;;;;;7.38;1.00;;;22.20;99.30;;;;;;5113618;28;20070;-68
2022/10/27 11:33:01;;;;;;;3.95;1.02;;;21.60;99.90;;;;;;5113579;28;20117;-68
2022/10/27 11:35:36;;;;;;;7.85;1.20;;;21.20;99.90;;;;;;5113491;28;20039;-68
2022/10/27 11:38:11;;;;;;;5.43;1.15;;;20.90;99.90;;;;;;5113397;28;20054;-68
2022/10/27 11:40:59;;;;;;;4.70;1.30;;;20.60;99.90;;;;;;5113159;28;20531;-68
2022/10/27 11:43:39;;;;;;;5.38;0.82;;;20.50;99.90;;;;;;5113284;28;20424;-68
2022/10/27 11:46:18;;;;;;;5.03;1.10;;;20.30;99.90;;;;;;5113280;28;20040;-68
2022/10/27 11:49:04;;;;;;;4.15;1.10;;;20.10;99.90;;;;;;5113241;28;20063;-71
2022/10/27 11:51:36;;;;;;;7.10;1.00;;;20.00;99.90;;;;;;5113461;28;20062;-68
2022/10/27 11:54:02;;;;;;;3.85;1.02;;;19.90;99.90;;;;;;5113149;28;20048;-68
2022/10/27 11:57:05;;;;;;;4.53;1.10;;;19.90;99.90;;;;;;5113362;28;20046;-67
2022/10/27 12:00:07;;;;;;;5.95;1.08;;;20.40;99.90;;;;;;5113333;28;20074;-68
2022/10/27 12:02:59;;;;;;;4.53;1.10;;;20.80;99.90;;;;;;5114093;28;20051;-68
2022/10/27 12:06:04;;;;;;;5.45;1.08;;;20.70;99.90;;;;;;5113071;28;20049;-68
2022/10/27 12:08:56;;;;;;;4.28;1.00;;;20.50;99.90;;;;;;5112589;28;20079;-68
2022/10/27 12:11:50;;;;;;;6.05;1.48;;;20.50;99.90;;;;;;5112893;28;20384;-68
2022/10/27 12:14:37;;;;;;;2.92;0.80;;;20.60;99.90;;;;;;5112829;28;20067;-68
2022/10/27 12:17:08;;;;;;;5.93;1.20;;;20.80;99.90;;;;;;5113036;28;20035;-68
2022/10/27 12:19:42;;;;;;;7.95;1.10;;;20.90;99.90;;;;;;5095972;28;20043;-67
2022/10/27 12:22:45;;;;;;;5.63;1.05;;;21.00;99.90;;;;;;5112644;28;20123;-67
2022/10/27 12:25:23;;;;;;;6.03;1.30;;;21.40;99.90;;;;;;5060894;28;20057;-68
2022/10/27 12:27:53;;;;;;;3.88;1.15;;;21.50;99.90;;;;;;5112652;28;20281;-68
2022/10/27 12:30:21;;;;;;;7.25;1.30;;;21.30;99.90;;;;;;5112467;28;20073;-68
2022/10/27 12:33:05;;;;;;;6.82;1.45;;;21.10;99.90;;;;;;5114061;28;20427;-68
2022/10/27 12:35:44;;;;;;;5.38;1.20;;;20.90;99.90;;;;;;5112506;28;20384;-68
2022/10/27 12:38:37;;;;;;;6.80;1.30;;;20.80;99.90;;;;;;5112498;28;20075;-68
2022/10/27 12:41:22;;;;;;;;;;;20.90;99.90;;;;;;5112675;28;20047;-68
2022/10/27 12:44:05;;;;;;;5.53;1.35;;;21.10;99.90;;;;;;5113298;28;19955;-68
2022/10/27 12:47:18;;;;;;;6.50;1.70;;;21.40;99.90;;;;;;5112674;28;20095;-69
2022/10/27 12:49:47;;;;;;;4.57;1.20;;;21.60;99.90;;;;;;5112527;28;20099;-71
2022/10/27 12:52:22;;;;;;;6.88;1.75;;;21.70;99.90;;;;;;5112264;28;20500;-71
2022/10/27 12:54:51;;;;;;;6.45;1.25;;;22.00;99.90;;;;;;5112251;28;20051;-69
2022/10/27 12:57:20;;;;;;;6.55;1.50;;;22.40;99.90;;;;;;5112199;28;20086;-70